sensor_id;sensor_type;location;lat;lon;timestamp;pressure;altitude;pressure_sealevel;temperature;humidity
21086;BME280;34247;50.064;19.970;2022-11-03T00:32:35;100037.84;;;12.42;89.45
21086;BME280;34247;50.064;19.970;2022-11-03T00:33:42;100030.91;;;12.39;89.47
21086;BME280;34247;50.064;19.970;2022-11-03T00:36:43;100037.00;;;12.41;89.65
21086;BME280;34247;50.064;19.970;2022-11-03T00:37:47;100037.84;;;12.42;89.62
21086;BME280;34247;50.064;19.970;2022-11-03T00:38:52;100031.00;;;12.38;89.74
21086;BME280;34247;50.064;19.970;2022-11-03T00:39:57;100033.59;;;12.39;89.34
21086;BME280;34247;50.064;19.970;2022-11-03T00:41:05;100029.13;;;12.40;89.73
21086;BME280;34247;50.064;19.970;2022-11-03T00:42:13;100033.47;;;12.41;89.40
21086;BME280;34247;50.064;19.970;2022-11-03T00:43:18;100035.28;;;12.40;89.58
21086;BME280;34247;50.064;19.970;2022-11-03T00:44:29;100033.38;;;12.42;89.40
21086;BME280;34247;50.064;19.970;2022-11-03T00:45:37;100029.97;;;12.40;89.57
21086;BME280;34247;50.064;19.970;2022-11-03T00:46:42;100030.91;;;12.39;89.58
21086;BME280;34247;50.064;19.970;2022-11-03T00:47:48;100035.28;;;12.40;89.21
21086;BME280;34247;50.064;19.970;2022-11-03T00:49:12;100036.25;;;12.39;89.27
21086;BME280;34247;50.064;19.970;2022-11-03T00:50:26;100027.47;;;12.37;89.36
21086;BME280;34247;50.064;19.970;2022-11-03T00:51:34;100024.28;;;12.32;89.58
21086;BME280;34247;50.064;19.970;2022-11-03T00:52:40;100026.94;;;12.32;89.39
21086;BME280;34247;50.064;19.970;2022-11-03T00:54:05;100030.25;;;12.36;89.17
21086;BME280;34247;50.064;19.970;2022-11-03T00:55:22;100038.44;;;12.33;89.25
21086;BME280;34247;50.064;19.970;2022-11-03T00:56:46;100035.00;;;12.31;89.42
21086;BME280;34247;50.064;19.970;2022-11-03T00:57:57;100032.66;;;12.26;89.79
21086;BME280;34247;50.064;19.970;2022-11-03T01:28:09;100047.88;;;11.81;92.14
21086;BME280;34247;50.064;19.970;2022-11-03T01:29:14;100039.91;;;11.81;91.90
21086;BME280;34247;50.064;19.970;2022-11-03T01:30:20;100032.25;;;11.75;91.42
21086;BME280;34247;50.064;19.970;2022-11-03T01:31:28;100037.22;;;11.81;91.99
21086;BME280;34247;50.064;19.970;2022-11-03T01:32:46;100044.75;;;11.89;91.68
21086;BME280;34247;50.064;19.970;2022-11-03T01:33:55;100040.66;;;11.83;91.78
21086;BME280;34247;50.064;19.970;2022-11-03T01:35:08;100053.38;;;11.93;91.75
21086;BME280;34247;50.064;19.970;2022-11-03T02:34:06;100048.25;;;11.15;93.55
21086;BME280;34247;50.064;19.970;2022-11-03T02:35:30;100042.19;;;11.13;93.76
21086;BME280;34247;50.064;19.970;2022-11-03T02:37:16;100048.34;;;11.14;93.82
21086;BME280;34247;50.064;19.970;2022-11-03T02:38:25;100054.63;;;11.13;93.84
21086;BME280;34247;50.064;19.970;2022-11-03T02:39:46;100053.56;;;11.15;93.81
21086;BME280;34247;50.064;19.970;2022-11-03T02:41:02;100061.47;;;11.17;93.80
21086;BME280;34247;50.064;19.970;2022-11-03T02:42:12;100042.28;;;11.12;93.54
21086;BME280;34247;50.064;19.970;2022-11-03T02:43:22;100053.50;;;11.17;93.60
21086;BME280;34247;50.064;19.970;2022-11-03T02:44:28;100057.09;;;11.16;93.86
21086;BME280;34247;50.064;19.970;2022-11-03T02:45:32;100052.56;;;11.18;93.78
21086;BME280;34247;50.064;19.970;2022-11-03T02:46:40;100050.75;;;11.18;93.87
21086;BME280;34247;50.064;19.970;2022-11-03T02:47:48;100055.31;;;11.16;93.64
21086;BME280;34247;50.064;19.970;2022-11-03T02:48:53;100051.69;;;11.17;93.85
21086;BME280;34247;50.064;19.970;2022-11-03T02:49:59;100056.06;;;11.18;93.57
21086;BME280;34247;50.064;19.970;2022-11-03T02:51:04;100059.56;;;11.19;94.26
21086;BME280;34247;50.064;19.970;2022-11-03T02:52:44;100049.19;;;11.14;94.09
21086;BME280;34247;50.064;19.970;2022-11-03T02:54:34;100060.69;;;11.15;94.13
21086;BME280;34247;50.064;19.970;2022-11-03T02:56:14;100059.75;;;11.16;94.24
21086;BME280;34247;50.064;19.970;2022-11-03T02:58:20;100058.22;;;11.12;94.10
21086;BME280;34247;50.064;19.970;2022-11-03T02:59:28;100059.16;;;11.11;94.31
21086;BME280;34247;50.064;19.970;2022-11-03T03:01:03;100062.88;;;11.08;94.71
21086;BME280;34247;50.064;19.970;2022-11-03T03:02:19;100060.22;;;11.08;94.76
21086;BME280;34247;50.064;19.970;2022-11-03T03:03:34;100066.44;;;11.07;94.84
21086;BME280;34247;50.064;19.970;2022-11-03T03:04:52;100059.41;;;11.06;94.88
21086;BME280;34247;50.064;19.970;2022-11-03T03:06:10;100056.66;;;11.08;94.31
21086;BME280;34247;50.064;19.970;2022-11-03T03:07:33;100054.97;;;11.07;94.75
21086;BME280;34247;50.064;19.970;2022-11-03T03:08:47;100061.91;;;11.09;94.42
21086;BME280;34247;50.064;19.970;2022-11-03T03:10:09;100057.56;;;11.08;94.44
21086;BME280;34247;50.064;19.970;2022-11-03T03:11:16;100061.31;;;11.04;94.66
21086;BME280;34247;50.064;19.970;2022-11-03T03:12:49;100062.19;;;11.04;94.83
21086;BME280;34247;50.064;19.970;2022-11-03T03:13:54;100054.19;;;11.04;94.43
21086;BME280;34247;50.064;19.970;2022-11-03T03:21:25;100057.06;;;11.01;94.61
21086;BME280;34247;50.064;19.970;2022-11-03T03:48:16;100059.81;;;10.84;96.66
21086;BME280;34247;50.064;19.970;2022-11-03T03:49:24;100046.19;;;10.74;96.04
21086;BME280;34247;50.064;19.970;2022-11-03T03:50:35;100058.44;;;10.77;96.07
21086;BME280;34247;50.064;19.970;2022-11-03T03:51:42;100061.00;;;10.78;96.05
21086;BME280;34247;50.064;19.970;2022-11-03T03:52:48;100060.09;;;10.80;96.14
21086;BME280;34247;50.064;19.970;2022-11-03T03:53:53;100057.50;;;10.78;95.98
21086;BME280;34247;50.064;19.970;2022-11-03T03:54:58;100067.88;;;10.83;95.58
21086;BME280;34247;50.064;19.970;2022-11-03T03:56:03;100060.09;;;10.80;95.79
21086;BME280;34247;50.064;19.970;2022-11-03T03:57:17;100063.59;;;10.80;95.78
21086;BME280;34247;50.064;19.970;2022-11-03T03:58:24;100060.00;;;10.81;95.52
21086;BME280;34247;50.064;19.970;2022-11-03T03:59:28;100068.97;;;10.78;95.64
21086;BME280;34247;50.064;19.970;2022-11-03T04:00:33;100061.94;;;10.77;95.88
21086;BME280;34247;50.064;19.970;2022-11-03T04:01:38;100064.59;;;10.77;96.04
21086;BME280;34247;50.064;19.970;2022-11-03T04:02:45;100059.28;;;10.77;96.09
21086;BME280;34247;50.064;19.970;2022-11-03T04:03:50;100064.78;;;10.74;95.96
21086;BME280;34247;50.064;19.970;2022-11-03T04:04:55;100062.22;;;10.73;95.75
21086;BME280;34247;50.064;19.970;2022-11-03T04:06:01;100057.31;;;10.49;97.02
21086;BME280;34247;50.064;19.970;2022-11-03T04:07:07;100062.38;;;10.54;97.27
21086;BME280;34247;50.064;19.970;2022-11-03T04:08:30;100062.22;;;10.57;96.40
21086;BME280;34247;50.064;19.970;2022-11-03T04:09:35;100063.16;;;10.56;95.90
21086;BME280;34247;50.064;19.970;2022-11-03T04:10:40;100064.09;;;10.55;95.77
21086;BME280;34247;50.064;19.970;2022-11-03T04:12:07;100059.06;;;10.51;95.68
21086;BME280;34247;50.064;19.970;2022-11-03T04:13:33;100061.03;;;10.47;95.54
21086;BME280;34247;50.064;19.970;2022-11-03T04:14:59;100055.91;;;10.44;95.63
21086;BME280;34247;50.064;19.970;2022-11-03T04:16:22;100059.50;;;10.43;95.03
21086;BME280;34247;50.064;19.970;2022-11-03T04:17:47;100055.28;;;10.39;95.17
21086;BME280;34247;50.064;19.970;2022-11-03T04:19:13;100057.19;;;10.37;94.78
21086;BME280;34247;50.064;19.970;2022-11-03T04:20:36;100058.28;;;10.33;94.63
21086;BME280;34247;50.064;19.970;2022-11-03T04:21:59;100054.75;;;10.32;93.98
21086;BME280;34247;50.064;19.970;2022-11-03T04:23:51;100059.53;;;10.26;93.77
21086;BME280;34247;50.064;19.970;2022-11-03T04:24:59;100057.53;;;10.13;94.12
21086;BME280;34247;50.064;19.970;2022-11-03T04:53:15;100042.44;;;9.65;94.76
21086;BME280;34247;50.064;19.970;2022-11-03T04:54:22;100045.09;;;9.65;94.57
21086;BME280;34247;50.064;19.970;2022-11-03T04:55:30;100047.03;;;9.61;94.64
21086;BME280;34247;50.064;19.970;2022-11-03T04:56:34;100044.16;;;9.66;94.42
21086;BME280;34247;50.064;19.970;2022-11-03T04:57:39;100050.31;;;9.66;94.69
21086;BME280;34247;50.064;19.970;2022-11-03T04:58:43;100046.81;;;9.66;94.64
21086;BME280;34247;50.064;19.970;2022-11-03T04:59:50;100047.66;;;9.66;94.41
21086;BME280;34247;50.064;19.970;2022-11-03T05:01:00;100047.66;;;9.66;94.25
21086;BME280;34247;50.064;19.970;2022-11-03T05:02:15;100047.66;;;9.66;94.35
21086;BME280;34247;50.064;19.970;2022-11-03T05:03:41;100050.31;;;9.66;94.28
21086;BME280;34247;50.064;19.970;2022-11-03T05:04:46;100046.09;;;9.62;94.33
21086;BME280;34247;50.064;19.970;2022-11-03T05:05:51;100053.06;;;9.65;94.54
21086;BME280;34247;50.064;19.970;2022-11-03T05:06:55;100046.03;;;9.64;94.48
21086;BME280;34247;50.064;19.970;2022-11-03T05:07:59;100048.59;;;9.65;94.14
21086;BME280;34247;50.064;19.970;2022-11-03T05:09:19;100051.25;;;9.65;94.16
21086;BME280;34247;50.064;19.970;2022-11-03T05:10:28;100049.53;;;9.64;93.96
21086;BME280;34247;50.064;19.970;2022-11-03T05:11:44;100057.50;;;9.64;94.29
21086;BME280;34247;50.064;19.970;2022-11-03T05:12:49;100041.59;;;9.64;94.38
21086;BME280;34247;50.064;19.970;2022-11-03T05:14:03;100049.53;;;9.64;94.37
21086;BME280;34247;50.064;19.970;2022-11-03T05:15:36;100046.94;;;9.63;94.34
21086;BME280;34247;50.064;19.970;2022-11-03T05:16:41;100056.66;;;9.64;94.56
21086;BME280;34247;50.064;19.970;2022-11-03T05:17:46;100059.28;;;9.64;94.26
21086;BME280;34247;50.064;19.970;2022-11-03T05:18:51;100055.78;;;9.63;94.16
21086;BME280;34247;50.064;19.970;2022-11-03T05:20:03;100055.00;;;9.61;94.50
21086;BME280;34247;50.064;19.970;2022-11-03T05:21:21;100053.19;;;9.62;94.30
21086;BME280;34247;50.064;19.970;2022-11-03T05:22:33;100057.63;;;9.61;93.89
21086;BME280;34247;50.064;19.970;2022-11-03T05:23:47;100054.22;;;9.59;93.90
21086;BME280;34247;50.064;19.970;2022-11-03T05:24:59;100063.03;;;9.60;93.78
21086;BME280;34247;50.064;19.970;2022-11-03T05:26:16;100043.72;;;9.58;93.66
21086;BME280;34247;50.064;19.970;2022-11-03T05:27:22;100051.66;;;9.58;93.65
21086;BME280;34247;50.064;19.970;2022-11-03T05:28:36;100051.75;;;9.56;93.17
21086;BME280;34247;50.064;19.970;2022-11-03T05:29:43;100056.16;;;9.56;93.34
21086;BME280;34247;50.064;19.970;2022-11-03T05:30:49;100056.25;;;9.54;93.37
21086;BME280;34247;50.064;19.970;2022-11-03T05:31:55;100058.81;;;9.56;93.16
21086;BME280;34247;50.064;19.970;2022-11-03T05:33:00;100060.78;;;9.52;93.05
21086;BME280;34247;50.064;19.970;2022-11-03T05:34:34;100053.00;;;9.49;92.74
21086;BME280;34247;50.064;19.970;2022-11-03T05:35:43;100059.19;;;9.48;93.19
21086;BME280;34247;50.064;19.970;2022-11-03T05:36:47;100045.09;;;9.48;93.13
21086;BME280;34247;50.064;19.970;2022-11-03T05:37:51;100052.19;;;9.47;93.09
21086;BME280;34247;50.064;19.970;2022-11-03T05:39:28;100054.06;;;9.45;93.32
21086;BME280;34247;50.064;19.970;2022-11-03T05:40:33;100053.13;;;9.46;93.41
21086;BME280;34247;50.064;19.970;2022-11-03T05:41:38;100050.56;;;9.45;93.28
21086;BME280;34247;50.064;19.970;2022-11-03T05:42:45;100046.91;;;9.47;93.37
21086;BME280;34247;50.064;19.970;2022-11-03T05:43:58;100046.03;;;9.47;93.39
21086;BME280;34247;50.064;19.970;2022-11-03T05:45:20;100054.94;;;9.46;93.29
21086;BME280;34247;50.064;19.970;2022-11-03T05:46:32;100047.84;;;9.46;93.01
21086;BME280;34247;50.064;19.970;2022-11-03T05:47:39;100048.78;;;9.45;93.05
21086;BME280;34247;50.064;19.970;2022-11-03T05:48:43;100047.91;;;9.45;93.01
21086;BME280;34247;50.064;19.970;2022-11-03T05:49:51;100045.28;;;9.45;92.75
21086;BME280;34247;50.064;19.970;2022-11-03T05:50:57;100040.06;;;9.43;93.06
21086;BME280;34247;50.064;19.970;2022-11-03T05:52:05;100053.31;;;9.43;93.16
21086;BME280;34247;50.064;19.970;2022-11-03T05:53:29;100048.94;;;9.42;93.21
21086;BME280;34247;50.064;19.970;2022-11-03T05:54:34;100050.66;;;9.43;93.60
21086;BME280;34247;50.064;19.970;2022-11-03T05:55:40;100045.28;;;9.45;93.50
21086;BME280;34247;50.064;19.970;2022-11-03T05:56:46;100047.84;;;9.46;93.36
21086;BME280;34247;50.064;19.970;2022-11-03T05:57:51;100048.69;;;9.47;93.09
21086;BME280;34247;50.064;19.970;2022-11-03T05:58:56;100048.69;;;9.47;93.22
21086;BME280;34247;50.064;19.970;2022-11-03T06:00:06;100046.75;;;9.50;93.13
21086;BME280;34247;50.064;19.970;2022-11-03T06:01:32;100054.75;;;9.49;92.96
21086;BME280;34247;50.064;19.970;2022-11-03T06:02:39;100049.53;;;9.47;93.05
21086;BME280;34247;50.064;19.970;2022-11-03T06:03:46;100052.19;;;9.47;92.89
21086;BME280;34247;50.064;19.970;2022-11-03T06:04:51;100047.75;;;9.48;93.08
21086;BME280;34247;50.064;19.970;2022-11-03T06:05:57;100050.16;;;9.52;93.13
21086;BME280;34247;50.064;19.970;2022-11-03T06:07:16;100051.88;;;9.53;92.86
21086;BME280;34247;50.064;19.970;2022-11-03T06:08:36;100054.44;;;9.55;92.91
21086;BME280;34247;50.064;19.970;2022-11-03T06:09:50;100039.41;;;9.55;92.95
21086;BME280;34247;50.064;19.970;2022-11-03T06:11:02;100041.06;;;9.58;93.03
21086;BME280;34247;50.064;19.970;2022-11-03T06:12:13;100049.88;;;9.58;92.63
21086;BME280;34247;50.064;19.970;2022-11-03T06:13:33;100042.00;;;9.57;92.60
21086;BME280;34247;50.064;19.970;2022-11-03T06:14:37;100052.34;;;9.61;92.96
21086;BME280;34247;50.064;19.970;2022-11-03T06:15:45;100047.97;;;9.60;92.65
21086;BME280;34247;50.064;19.970;2022-11-03T06:17:06;100052.25;;;9.63;92.76
21086;BME280;34247;50.064;19.970;2022-11-03T06:18:18;100046.91;;;9.64;92.59
21086;BME280;34247;50.064;19.970;2022-11-03T06:19:43;100044.06;;;9.67;92.64
21086;BME280;34247;50.064;19.970;2022-11-03T06:20:55;100051.94;;;9.69;92.81
21086;BME280;34247;50.064;19.970;2022-11-03T06:22:35;100052.75;;;9.71;92.75
21086;BME280;34247;50.064;19.970;2022-11-03T06:23:42;100057.94;;;9.73;92.50
21086;BME280;34247;50.064;19.970;2022-11-03T06:24:46;100052.56;;;9.74;92.62
21086;BME280;34247;50.064;19.970;2022-11-03T06:25:55;100054.44;;;9.72;92.61
21086;BME280;34247;50.064;19.970;2022-11-03T06:27:00;100052.66;;;9.73;92.68
21086;BME280;34247;50.064;19.970;2022-11-03T06:34:35;100062.00;;;9.80;92.54
21086;BME280;34247;50.064;19.970;2022-11-03T06:35:42;100058.41;;;9.81;92.58
21086;BME280;34247;50.064;19.970;2022-11-03T06:36:46;100058.16;;;9.85;92.26
21086;BME280;34247;50.064;19.970;2022-11-03T06:37:51;100063.47;;;9.85;92.53
21086;BME280;34247;50.064;19.970;2022-11-03T06:39:01;100066.03;;;9.87;92.46
21086;BME280;34247;50.064;19.970;2022-11-03T06:41:25;100068.38;;;9.93;92.63
21086;BME280;34247;50.064;19.970;2022-11-03T06:42:31;100063.84;;;9.95;92.50
21086;BME280;34247;50.064;19.970;2022-11-03T06:43:43;100063.66;;;9.98;92.71
21086;BME280;34247;50.064;19.970;2022-11-03T06:44:50;100054.75;;;9.99;92.34
21086;BME280;34247;50.064;19.970;2022-11-03T06:45:57;100066.84;;;10.05;92.29
21086;BME280;34247;50.064;19.970;2022-11-03T07:31:19;100062.00;;;10.92;90.03
21086;BME280;34247;50.064;19.970;2022-11-03T07:32:32;100052.00;;;10.97;89.63
21086;BME280;34247;50.064;19.970;2022-11-03T07:33:37;100053.78;;;10.96;89.40
21086;BME280;34247;50.064;19.970;2022-11-03T07:34:42;100050.78;;;11.02;89.27
21086;BME280;34247;50.064;19.970;2022-11-03T07:40:52;100038.16;;;11.36;89.19
21086;BME280;34247;50.064;19.970;2022-11-03T07:42:16;100035.25;;;11.55;88.75
21086;BME280;34247;50.064;19.970;2022-11-03T07:43:32;100034.63;;;11.80;88.13
21086;BME280;34247;50.064;19.970;2022-11-03T07:44:39;100027.72;;;12.06;86.80
21086;BME280;34247;50.064;19.970;2022-11-03T07:45:51;100031.56;;;12.43;85.55
21086;BME280;34247;50.064;19.970;2022-11-03T07:46:56;100024.13;;;12.89;83.83
21086;BME280;34247;50.064;19.970;2022-11-03T07:48:24;100027.56;;;13.82;80.43
21086;BME280;34247;50.064;19.970;2022-11-03T07:49:33;100026.97;;;14.77;78.47
21086;BME280;34247;50.064;19.970;2022-11-03T07:50:39;100014.31;;;15.62;74.30
21086;BME280;34247;50.064;19.970;2022-11-03T07:51:43;100013.34;;;16.42;71.64
21086;BME280;34247;50.064;19.970;2022-11-03T07:52:47;100003.63;;;17.16;68.39
21086;BME280;34247;50.064;19.970;2022-11-03T07:55:16;100010.94;;;18.78;62.05
21086;BME280;34247;50.064;19.970;2022-11-03T07:56:33;99997.06;;;19.50;58.11
21086;BME280;34247;50.064;19.970;2022-11-03T07:57:40;100000.28;;;20.10;56.35
21086;BME280;34247;50.064;19.970;2022-11-03T07:59:14;99993.78;;;20.86;51.47
21086;BME280;34247;50.064;19.970;2022-11-03T08:00:19;99996.72;;;21.46;52.56
21086;BME280;34247;50.064;19.970;2022-11-03T08:01:29;99987.41;;;22.00;51.28
21086;BME280;34247;50.064;19.970;2022-11-03T08:02:56;99993.28;;;22.64;48.27
21086;BME280;34247;50.064;19.970;2022-11-03T08:04:10;99991.00;;;23.10;47.60
21086;BME280;34247;50.064;19.970;2022-11-03T08:05:17;99987.63;;;23.49;46.34
21086;BME280;34247;50.064;19.970;2022-11-03T08:06:21;99981.16;;;23.82;45.04
21086;BME280;34247;50.064;19.970;2022-11-03T08:07:26;99974.94;;;24.21;44.35
21086;BME280;34247;50.064;19.970;2022-11-03T08:08:30;99976.50;;;24.55;43.37
21086;BME280;34247;50.064;19.970;2022-11-03T08:09:35;99972.63;;;24.80;42.80
21086;BME280;34247;50.064;19.970;2022-11-03T08:10:39;99969.66;;;25.21;42.59
21086;BME280;34247;50.064;19.970;2022-11-03T08:11:44;99965.28;;;25.49;41.32
21086;BME280;34247;50.064;19.970;2022-11-03T08:12:49;99963.22;;;25.89;40.23
21086;BME280;34247;50.064;19.970;2022-11-03T08:13:53;99957.94;;;26.17;39.57
21086;BME280;34247;50.064;19.970;2022-11-03T08:14:57;99965.53;;;26.51;39.45
21086;BME280;34247;50.064;19.970;2022-11-03T08:16:02;99962.78;;;26.66;38.31
21086;BME280;34247;50.064;19.970;2022-11-03T08:17:06;99955.97;;;26.77;36.15
21086;BME280;34247;50.064;19.970;2022-11-03T08:18:10;99946.00;;;27.05;38.20
21086;BME280;34247;50.064;19.970;2022-11-03T08:19:14;99947.09;;;27.32;36.01
21086;BME280;34247;50.064;19.970;2022-11-03T08:20:19;99943.63;;;27.45;35.74
21086;BME280;34247;50.064;19.970;2022-11-03T08:21:24;99941.97;;;27.72;35.83
21086;BME280;34247;50.064;19.970;2022-11-03T08:22:29;99941.41;;;27.83;34.20
21086;BME280;34247;50.064;19.970;2022-11-03T08:23:34;99938.41;;;28.13;35.17
21086;BME280;34247;50.064;19.970;2022-11-03T08:24:38;99943.84;;;28.06;35.50
21086;BME280;34247;50.064;19.970;2022-11-03T08:25:42;99937.81;;;28.24;34.71
21086;BME280;34247;50.064;19.970;2022-11-03T08:26:47;99943.22;;;28.52;33.96
21086;BME280;34247;50.064;19.970;2022-11-03T08:29:50;99934.53;;;29.16;32.34
21086;BME280;34247;50.064;19.970;2022-11-03T08:30:54;99934.75;;;29.28;32.21
21086;BME280;34247;50.064;19.970;2022-11-03T08:54:59;99910.53;;;29.78;29.46
21086;BME280;34247;50.064;19.970;2022-11-03T08:56:05;99914.72;;;29.87;29.20
21086;BME280;34247;50.064;19.970;2022-11-03T10:28:24;99822.22;;;16.20;55.63
21086;BME280;34247;50.064;19.970;2022-11-03T10:29:33;99818.44;;;16.23;55.36
21086;BME280;34247;50.064;19.970;2022-11-03T11:46:53;99706.03;;;15.80;52.27
21086;BME280;34247;50.064;19.970;2022-11-03T11:48:21;99691.91;;;15.78;52.61
21086;BME280;34247;50.064;19.970;2022-11-03T11:49:33;99696.75;;;15.84;52.16
21086;BME280;34247;50.064;19.970;2022-11-03T11:50:46;99690.06;;;15.89;52.24
21086;BME280;34247;50.064;19.970;2022-11-03T12:11:44;99636.97;;;15.94;51.65
21086;BME280;34247;50.064;19.970;2022-11-03T12:35:57;99587.41;;;16.00;52.37
21086;BME280;34247;50.064;19.970;2022-11-03T12:37:03;99590.06;;;16.00;52.24
21086;BME280;34247;50.064;19.970;2022-11-03T12:38:11;99582.63;;;16.04;52.29
21086;BME280;34247;50.064;19.970;2022-11-03T12:39:16;99589.72;;;16.14;52.21
21086;BME280;34247;50.064;19.970;2022-11-03T12:40:20;99591.56;;;16.14;52.13
21086;BME280;34247;50.064;19.970;2022-11-03T12:41:25;99593.56;;;16.21;52.17
21086;BME280;34247;50.064;19.970;2022-11-03T12:42:30;99591.88;;;16.20;52.08
21086;BME280;34247;50.064;19.970;2022-11-03T12:45:36;99585.00;;;16.27;51.73
21086;BME280;34247;50.064;19.970;2022-11-03T17:03:59;99342.66;;;11.99;66.62
21086;BME280;34247;50.064;19.970;2022-11-03T17:05:09;99365.38;;;12.15;66.52
21086;BME280;34247;50.064;19.970;2022-11-03T17:06:13;99368.44;;;12.22;66.43
21086;BME280;34247;50.064;19.970;2022-11-03T17:07:17;99362.91;;;12.25;66.63
21086;BME280;34247;50.064;19.970;2022-11-03T17:08:25;99368.81;;;12.29;66.88
21086;BME280;34247;50.064;19.970;2022-11-03T17:09:52;99368.50;;;12.33;67.16
21086;BME280;34247;50.064;19.970;2022-11-03T17:10:55;99367.66;;;12.33;67.66
21086;BME280;34247;50.064;19.970;2022-11-03T17:12:00;99369.09;;;12.37;68.02
21086;BME280;34247;50.064;19.970;2022-11-03T17:13:07;99371.69;;;12.38;68.09
21086;BME280;34247;50.064;19.970;2022-11-03T17:14:14;99359.94;;;12.41;67.83
21086;BME280;34247;50.064;19.970;2022-11-03T17:15:19;99358.97;;;12.42;68.42
21086;BME280;34247;50.064;19.970;2022-11-03T17:16:25;99353.53;;;12.43;68.27
21086;BME280;34247;50.064;19.970;2022-11-03T17:17:30;99356.06;;;12.45;67.50
21086;BME280;34247;50.064;19.970;2022-11-03T17:18:35;99355.00;;;12.48;68.15
21086;BME280;34247;50.064;19.970;2022-11-03T17:19:39;99355.13;;;12.46;67.92
21086;BME280;34247;50.064;19.970;2022-11-03T17:20:44;99349.56;;;12.49;68.06
21086;BME280;34247;50.064;19.970;2022-11-03T17:21:48;99351.13;;;12.52;68.30
21086;BME280;34247;50.064;19.970;2022-11-03T17:22:53;99347.75;;;12.50;68.02
21086;BME280;34247;50.064;19.970;2022-11-03T17:23:59;99342.94;;;12.55;67.97
21086;BME280;34247;50.064;19.970;2022-11-03T17:25:05;99342.94;;;12.55;67.57
21086;BME280;34247;50.064;19.970;2022-11-03T17:26:12;99336.63;;;12.56;67.42
21086;BME280;34247;50.064;19.970;2022-11-03T17:27:50;99331.66;;;12.51;67.63
21086;BME280;34247;50.064;19.970;2022-11-03T17:28:56;99327.19;;;12.52;67.54
21086;BME280;34247;50.064;19.970;2022-11-03T17:31:31;99327.53;;;12.47;66.58
21086;BME280;34247;50.064;19.970;2022-11-03T17:32:41;99314.09;;;12.49;67.49
21086;BME280;34247;50.064;19.970;2022-11-03T17:33:46;99320.41;;;12.48;67.45
21086;BME280;34247;50.064;19.970;2022-11-03T17:34:52;99317.94;;;12.45;67.06
21086;BME280;34247;50.064;19.970;2022-11-03T17:35:56;99314.44;;;12.44;67.10
21086;BME280;34247;50.064;19.970;2022-11-03T17:37:00;99307.03;;;12.36;67.05
21086;BME280;34247;50.064;19.970;2022-11-03T17:38:11;99310.22;;;12.41;67.32
21086;BME280;34247;50.064;19.970;2022-11-03T17:39:22;99309.38;;;12.41;67.18
21086;BME280;34247;50.064;19.970;2022-11-03T17:40:47;99308.41;;;12.42;66.80
21086;BME280;34247;50.064;19.970;2022-11-03T17:41:52;99300.16;;;12.34;67.65
21086;BME280;34247;50.064;19.970;2022-11-03T17:42:57;99301.97;;;12.33;66.83
21086;BME280;34247;50.064;19.970;2022-11-03T17:44:01;99297.59;;;12.32;67.31
21086;BME280;34247;50.064;19.970;2022-11-03T17:45:14;99296.97;;;12.29;67.00
21086;BME280;34247;50.064;19.970;2022-11-03T17:46:19;99300.59;;;12.28;67.29
21086;BME280;34247;50.064;19.970;2022-11-03T17:47:36;99293.78;;;12.24;67.46
21086;BME280;34247;50.064;19.970;2022-11-03T17:48:41;99297.34;;;12.24;67.11
21086;BME280;34247;50.064;19.970;2022-11-03T17:49:48;99296.13;;;12.28;67.66
21086;BME280;34247;50.064;19.970;2022-11-03T17:50:55;99298.78;;;12.28;67.41
21086;BME280;34247;50.064;19.970;2022-11-03T17:52:01;99301.44;;;12.28;67.36
21086;BME280;34247;50.064;19.970;2022-11-03T17:53:19;99292.84;;;12.25;67.56
21086;BME280;34247;50.064;19.970;2022-11-03T17:54:30;99299.75;;;12.27;67.48
21086;BME280;34247;50.064;19.970;2022-11-03T17:55:36;99296.44;;;12.24;67.83
21086;BME280;34247;50.064;19.970;2022-11-03T17:56:42;99288.38;;;12.25;67.52
21086;BME280;34247;50.064;19.970;2022-11-03T17:57:48;99295.13;;;12.18;67.77
21086;BME280;34247;50.064;19.970;2022-11-03T17:58:53;99292.47;;;12.18;68.01
21086;BME280;34247;50.064;19.970;2022-11-03T17:59:58;99286.91;;;12.21;67.80
21086;BME280;34247;50.064;19.970;2022-11-03T18:01:05;99285.09;;;12.22;67.77
21086;BME280;34247;50.064;19.970;2022-11-03T18:02:18;99289.69;;;12.20;68.24
21086;BME280;34247;50.064;19.970;2022-11-03T18:03:25;99278.19;;;12.19;68.22
21086;BME280;34247;50.064;19.970;2022-11-03T18:04:31;99286.19;;;12.19;68.11
21086;BME280;34247;50.064;19.970;2022-11-03T18:05:35;99293.19;;;12.20;68.17
21086;BME280;34247;50.064;19.970;2022-11-03T18:06:40;99287.13;;;12.18;67.98
21086;BME280;34247;50.064;19.970;2022-11-03T18:07:49;99290.66;;;12.19;68.10
21086;BME280;34247;50.064;19.970;2022-11-03T18:08:53;99294.28;;;12.18;68.56
21086;BME280;34247;50.064;19.970;2022-11-03T18:09:57;99292.56;;;12.17;68.37
21086;BME280;34247;50.064;19.970;2022-11-03T18:11:03;99283.84;;;12.14;68.37
21086;BME280;34247;50.064;19.970;2022-11-03T18:12:12;99285.44;;;12.17;68.42
21086;BME280;34247;50.064;19.970;2022-11-03T18:13:42;99282.03;;;12.15;68.60
21086;BME280;34247;50.064;19.970;2022-11-03T18:14:46;99280.34;;;12.14;68.58
21086;BME280;34247;50.064;19.970;2022-11-03T18:17:08;99284.22;;;12.10;69.07
21086;BME280;34247;50.064;19.970;2022-11-03T18:19:29;99279.09;;;12.07;69.15
21086;BME280;34247;50.064;19.970;2022-11-03T18:20:34;99280.31;;;12.03;69.13
21086;BME280;34247;50.064;19.970;2022-11-03T18:21:38;99278.59;;;12.02;69.34
21086;BME280;34247;50.064;19.970;2022-11-03T18:22:43;99269.88;;;12.00;69.44
21086;BME280;34247;50.064;19.970;2022-11-03T18:23:48;99275.19;;;12.00;69.49